sensor_id;sensor_type;location;lat;lon;timestamp;pressure;altitude;pressure_sealevel;temperature
10869;BMP180;62667;48.698;8.762;2023-03-14T00:01:10;94409.00;;;9.10
10869;BMP180;62667;48.698;8.762;2023-03-14T00:03:37;94403.00;;;9.00
10869;BMP180;62667;48.698;8.762;2023-03-14T00:06:06;94402.00;;;9.00
10869;BMP180;62667;48.698;8.762;2023-03-14T00:08:34;94391.00;;;9.10
10869;BMP180;62667;48.698;8.762;2023-03-14T00:11:07;94397.00;;;9.00
10869;BMP180;62667;48.698;8.762;2023-03-14T00:13:34;94396.00;;;8.90
10869;BMP180;62667;48.698;8.762;2023-03-14T00:16:03;94392.00;;;8.90
10869;BMP180;62667;48.698;8.762;2023-03-14T00:18:30;94386.00;;;8.90
10869;BMP180;62667;48.698;8.762;2023-03-14T00:21:00;94379.00;;;8.90
10869;BMP180;62667;48.698;8.762;2023-03-14T00:23:28;94379.00;;;8.90
10869;BMP180;62667;48.698;8.762;2023-03-14T00:25:59;94386.00;;;9.10
10869;BMP180;62667;48.698;8.762;2023-03-14T00:28:28;94387.00;;;9.00
10869;BMP180;62667;48.698;8.762;2023-03-14T00:30:56;94388.00;;;9.00
10869;BMP180;62667;48.698;8.762;2023-03-14T00:33:24;94374.00;;;9.10
10869;BMP180;62667;48.698;8.762;2023-03-14T00:35:56;94360.00;;;9.10
10869;BMP180;62667;48.698;8.762;2023-03-14T00:38:24;94369.00;;;9.20
10869;BMP180;62667;48.698;8.762;2023-03-14T00:40:51;94384.00;;;9.20
10869;BMP180;62667;48.698;8.762;2023-03-14T00:43:20;94388.00;;;9.20
10869;BMP180;62667;48.698;8.762;2023-03-14T00:45:48;94390.00;;;9.20
10869;BMP180;62667;48.698;8.762;2023-03-14T00:48:15;94391.00;;;9.20
10869;BMP180;62667;48.698;8.762;2023-03-14T00:50:43;94396.00;;;9.00
10869;BMP180;62667;48.698;8.762;2023-03-14T00:53:10;94404.00;;;9.20
10869;BMP180;62667;48.698;8.762;2023-03-14T00:55:38;94407.00;;;9.20
10869;BMP180;62667;48.698;8.762;2023-03-14T00:58:05;94411.00;;;9.20
10869;BMP180;62667;48.698;8.762;2023-03-14T01:00:33;94411.00;;;9.10
10869;BMP180;62667;48.698;8.762;2023-03-14T01:03:02;94403.00;;;9.10
10869;BMP180;62667;48.698;8.762;2023-03-14T01:05:30;94406.00;;;9.00
10869;BMP180;62667;48.698;8.762;2023-03-14T01:07:58;94409.00;;;8.90
10869;BMP180;62667;48.698;8.762;2023-03-14T01:10:25;94394.00;;;9.00
10869;BMP180;62667;48.698;8.762;2023-03-14T01:12:53;94401.00;;;9.10
10869;BMP180;62667;48.698;8.762;2023-03-14T01:15:20;94390.00;;;8.90
10869;BMP180;62667;48.698;8.762;2023-03-14T01:17:48;94380.00;;;8.90
10869;BMP180;62667;48.698;8.762;2023-03-14T01:20:17;94367.00;;;8.90
10869;BMP180;62667;48.698;8.762;2023-03-14T01:22:44;94368.00;;;8.90
10869;BMP180;62667;48.698;8.762;2023-03-14T01:25:14;94352.00;;;8.80
10869;BMP180;62667;48.698;8.762;2023-03-14T01:27:42;94341.00;;;8.90
10869;BMP180;62667;48.698;8.762;2023-03-14T01:30:11;94321.00;;;9.00
10869;BMP180;62667;48.698;8.762;2023-03-14T01:32:39;94300.00;;;9.10
10869;BMP180;62667;48.698;8.762;2023-03-14T01:35:07;94294.00;;;9.00
10869;BMP180;62667;48.698;8.762;2023-03-14T01:37:36;94288.00;;;8.90
10869;BMP180;62667;48.698;8.762;2023-03-14T01:40:04;94294.00;;;8.90
10869;BMP180;62667;48.698;8.762;2023-03-14T01:42:32;94299.00;;;8.90
10869;BMP180;62667;48.698;8.762;2023-03-14T01:45:01;94304.00;;;8.70
10869;BMP180;62667;48.698;8.762;2023-03-14T01:47:29;94300.00;;;8.80
10869;BMP180;62667;48.698;8.762;2023-03-14T01:49:59;94291.00;;;8.80
10869;BMP180;62667;48.698;8.762;2023-03-14T01:52:30;94290.00;;;8.50
10869;BMP180;62667;48.698;8.762;2023-03-14T01:55:05;94287.00;;;8.70
10869;BMP180;62667;48.698;8.762;2023-03-14T01:57:37;94310.00;;;8.70
10869;BMP180;62667;48.698;8.762;2023-03-14T02:00:08;94299.00;;;8.60
10869;BMP180;62667;48.698;8.762;2023-03-14T02:05:06;94310.00;;;8.60
10869;BMP180;62667;48.698;8.762;2023-03-14T02:07:37;94297.00;;;8.50
10869;BMP180;62667;48.698;8.762;2023-03-14T02:10:09;94303.00;;;8.40
10869;BMP180;62667;48.698;8.762;2023-03-14T02:12:37;94301.00;;;8.40
10869;BMP180;62667;48.698;8.762;2023-03-14T02:15:05;94302.00;;;8.40
10869;BMP180;62667;48.698;8.762;2023-03-14T02:17:32;94301.00;;;8.40
10869;BMP180;62667;48.698;8.762;2023-03-14T02:20:19;94282.00;;;8.40
10869;BMP180;62667;48.698;8.762;2023-03-14T02:22:50;94276.00;;;8.40
10869;BMP180;62667;48.698;8.762;2023-03-14T02:25:24;94288.00;;;8.30
10869;BMP180;62667;48.698;8.762;2023-03-14T02:27:54;94274.00;;;8.30
10869;BMP180;62667;48.698;8.762;2023-03-14T02:30:24;94275.00;;;8.20
10869;BMP180;62667;48.698;8.762;2023-03-14T02:32:55;94258.00;;;8.30
10869;BMP180;62667;48.698;8.762;2023-03-14T02:35:28;94263.00;;;8.20
10869;BMP180;62667;48.698;8.762;2023-03-14T02:38:03;94240.00;;;8.30
10869;BMP180;62667;48.698;8.762;2023-03-14T02:40:35;94246.00;;;8.10
10869;BMP180;62667;48.698;8.762;2023-03-14T02:43:04;94262.00;;;8.10
10869;BMP180;62667;48.698;8.762;2023-03-14T02:45:42;94245.00;;;8.20
10869;BMP180;62667;48.698;8.762;2023-03-14T02:48:14;94255.00;;;8.20
10869;BMP180;62667;48.698;8.762;2023-03-14T02:50:43;94242.00;;;8.20
10869;BMP180;62667;48.698;8.762;2023-03-14T02:53:14;94233.00;;;8.00
10869;BMP180;62667;48.698;8.762;2023-03-14T02:55:46;94204.00;;;8.10
10869;BMP180;62667;48.698;8.762;2023-03-14T02:58:15;94222.00;;;8.00
10869;BMP180;62667;48.698;8.762;2023-03-14T03:00:43;94219.00;;;8.00
10869;BMP180;62667;48.698;8.762;2023-03-14T03:03:10;94222.00;;;8.10
10869;BMP180;62667;48.698;8.762;2023-03-14T03:05:37;94214.00;;;8.10
10869;BMP180;62667;48.698;8.762;2023-03-14T03:08:05;94218.00;;;8.10
10869;BMP180;62667;48.698;8.762;2023-03-14T03:10:32;94203.00;;;8.10
10869;BMP180;62667;48.698;8.762;2023-03-14T03:13:00;94204.00;;;8.10
10869;BMP180;62667;48.698;8.762;2023-03-14T03:15:29;94197.00;;;7.90
10869;BMP180;62667;48.698;8.762;2023-03-14T03:17:56;94190.00;;;8.10
10869;BMP180;62667;48.698;8.762;2023-03-14T03:20:23;94198.00;;;8.20
10869;BMP180;62667;48.698;8.762;2023-03-14T03:22:51;94191.00;;;8.00
10869;BMP180;62667;48.698;8.762;2023-03-14T03:25:18;94185.00;;;8.00
10869;BMP180;62667;48.698;8.762;2023-03-14T03:27:45;94178.00;;;8.00
10869;BMP180;62667;48.698;8.762;2023-03-14T03:30:13;94179.00;;;8.00
10869;BMP180;62667;48.698;8.762;2023-03-14T03:32:42;94172.00;;;8.00
10869;BMP180;62667;48.698;8.762;2023-03-14T03:35:10;94172.00;;;7.90
10869;BMP180;62667;48.698;8.762;2023-03-14T03:37:37;94160.00;;;7.80
10869;BMP180;62667;48.698;8.762;2023-03-14T03:40:06;94142.00;;;7.90
10869;BMP180;62667;48.698;8.762;2023-03-14T03:42:34;94141.00;;;7.90
10869;BMP180;62667;48.698;8.762;2023-03-14T03:45:03;94134.00;;;7.80
10869;BMP180;62667;48.698;8.762;2023-03-14T03:47:31;94148.00;;;7.90
10869;BMP180;62667;48.698;8.762;2023-03-14T03:49:59;94147.00;;;7.80
10869;BMP180;62667;48.698;8.762;2023-03-14T03:52:27;94158.00;;;7.70
10869;BMP180;62667;48.698;8.762;2023-03-14T03:54:54;94139.00;;;7.80
10869;BMP180;62667;48.698;8.762;2023-03-14T03:57:21;94135.00;;;7.80
10869;BMP180;62667;48.698;8.762;2023-03-14T03:59:48;94138.00;;;7.90
10869;BMP180;62667;48.698;8.762;2023-03-14T04:02:15;94134.00;;;7.80
10869;BMP180;62667;48.698;8.762;2023-03-14T04:04:42;94133.00;;;7.70
10869;BMP180;62667;48.698;8.762;2023-03-14T04:07:10;94120.00;;;7.70
10869;BMP180;62667;48.698;8.762;2023-03-14T04:09:39;94121.00;;;7.60
10869;BMP180;62667;48.698;8.762;2023-03-14T04:12:07;94121.00;;;7.80
10869;BMP180;62667;48.698;8.762;2023-03-14T04:14:34;94114.00;;;7.80
10869;BMP180;62667;48.698;8.762;2023-03-14T04:17:01;94117.00;;;7.70
10869;BMP180;62667;48.698;8.762;2023-03-14T04:19:28;94114.00;;;7.60
10869;BMP180;62667;48.698;8.762;2023-03-14T04:21:55;94105.00;;;7.70
10869;BMP180;62667;48.698;8.762;2023-03-14T04:24:24;94111.00;;;7.50
10869;BMP180;62667;48.698;8.762;2023-03-14T04:26:51;94116.00;;;7.50
10869;BMP180;62667;48.698;8.762;2023-03-14T04:29:19;94099.00;;;7.60
10869;BMP180;62667;48.698;8.762;2023-03-14T04:31:46;94110.00;;;7.70
10869;BMP180;62667;48.698;8.762;2023-03-14T04:34:13;94099.00;;;7.70
10869;BMP180;62667;48.698;8.762;2023-03-14T04:36:40;94090.00;;;7.60
10869;BMP180;62667;48.698;8.762;2023-03-14T04:39:07;94098.00;;;7.50
10869;BMP180;62667;48.698;8.762;2023-03-14T04:41:36;94093.00;;;7.60
10869;BMP180;62667;48.698;8.762;2023-03-14T04:44:04;94094.00;;;7.60
10869;BMP180;62667;48.698;8.762;2023-03-14T04:46:31;94102.00;;;7.60
10869;BMP180;62667;48.698;8.762;2023-03-14T04:49:01;94077.00;;;7.60
10869;BMP180;62667;48.698;8.762;2023-03-14T04:51:29;94074.00;;;7.60
10869;BMP180;62667;48.698;8.762;2023-03-14T04:53:56;94079.00;;;7.60
10869;BMP180;62667;48.698;8.762;2023-03-14T04:56:24;94072.00;;;7.50
10869;BMP180;62667;48.698;8.762;2023-03-14T04:58:52;94061.00;;;7.50
10869;BMP180;62667;48.698;8.762;2023-03-14T05:01:20;94059.00;;;7.50
10869;BMP180;62667;48.698;8.762;2023-03-14T05:03:47;94045.00;;;7.60
10869;BMP180;62667;48.698;8.762;2023-03-14T05:06:15;94039.00;;;7.60
10869;BMP180;62667;48.698;8.762;2023-03-14T05:08:42;94036.00;;;7.50
10869;BMP180;62667;48.698;8.762;2023-03-14T05:11:11;94040.00;;;7.50
10869;BMP180;62667;48.698;8.762;2023-03-14T05:13:39;94041.00;;;7.50
10869;BMP180;62667;48.698;8.762;2023-03-14T05:16:09;94041.00;;;7.50
10869;BMP180;62667;48.698;8.762;2023-03-14T05:18:37;94039.00;;;7.40
10869;BMP180;62667;48.698;8.762;2023-03-14T05:21:05;94039.00;;;7.40
10869;BMP180;62667;48.698;8.762;2023-03-14T05:23:33;94040.00;;;7.50
10869;BMP180;62667;48.698;8.762;2023-03-14T05:26:00;94035.00;;;7.60
10869;BMP180;62667;48.698;8.762;2023-03-14T05:28:27;94034.00;;;7.50
10869;BMP180;62667;48.698;8.762;2023-03-14T05:30:55;94031.00;;;7.60
10869;BMP180;62667;48.698;8.762;2023-03-14T05:33:24;94028.00;;;7.60
10869;BMP180;62667;48.698;8.762;2023-03-14T05:35:51;94021.00;;;7.70
10869;BMP180;62667;48.698;8.762;2023-03-14T05:38:18;94035.00;;;7.70
10869;BMP180;62667;48.698;8.762;2023-03-14T05:40:46;94006.00;;;7.70
10869;BMP180;62667;48.698;8.762;2023-03-14T05:43:13;94028.00;;;7.70
10869;BMP180;62667;48.698;8.762;2023-03-14T05:45:42;94006.00;;;7.80
10869;BMP180;62667;48.698;8.762;2023-03-14T05:48:10;94022.00;;;7.70
10869;BMP180;62667;48.698;8.762;2023-03-14T05:51:04;94027.00;;;7.60
10869;BMP180;62667;48.698;8.762;2023-03-14T05:53:32;94030.00;;;7.60
10869;BMP180;62667;48.698;8.762;2023-03-14T05:55:59;94031.00;;;7.70
10869;BMP180;62667;48.698;8.762;2023-03-14T05:58:27;94035.00;;;7.80
10869;BMP180;62667;48.698;8.762;2023-03-14T06:00:54;94019.00;;;7.80
10869;BMP180;62667;48.698;8.762;2023-03-14T06:03:21;94026.00;;;7.90
10869;BMP180;62667;48.698;8.762;2023-03-14T06:05:50;94015.00;;;7.90
10869;BMP180;62667;48.698;8.762;2023-03-14T06:08:19;94018.00;;;7.90
10869;BMP180;62667;48.698;8.762;2023-03-14T06:10:46;94021.00;;;7.80
10869;BMP180;62667;48.698;8.762;2023-03-14T06:13:14;94020.00;;;8.00
10869;BMP180;62667;48.698;8.762;2023-03-14T06:15:42;94022.00;;;7.90
10869;BMP180;62667;48.698;8.762;2023-03-14T06:18:10;94002.00;;;8.10
10869;BMP180;62667;48.698;8.762;2023-03-14T06:20:38;94012.00;;;8.00
10869;BMP180;62667;48.698;8.762;2023-03-14T06:23:06;94006.00;;;8.10
10869;BMP180;62667;48.698;8.762;2023-03-14T06:25:36;94024.00;;;8.10
10869;BMP180;62667;48.698;8.762;2023-03-14T06:28:04;94010.00;;;8.00
10869;BMP180;62667;48.698;8.762;2023-03-14T06:30:31;94013.00;;;7.90
10869;BMP180;62667;48.698;8.762;2023-03-14T06:32:58;94012.00;;;8.00
10869;BMP180;62667;48.698;8.762;2023-03-14T06:35:26;94008.00;;;8.00
10869;BMP180;62667;48.698;8.762;2023-03-14T06:37:53;93997.00;;;8.10
10869;BMP180;62667;48.698;8.762;2023-03-14T06:40:21;94002.00;;;8.20
10869;BMP180;62667;48.698;8.762;2023-03-14T06:42:50;94020.00;;;8.10
10869;BMP180;62667;48.698;8.762;2023-03-14T06:45:18;94023.00;;;8.10
10869;BMP180;62667;48.698;8.762;2023-03-14T06:47:45;94028.00;;;8.20
10869;BMP180;62667;48.698;8.762;2023-03-14T06:50:12;94010.00;;;8.20
10869;BMP180;62667;48.698;8.762;2023-03-14T06:52:43;94016.00;;;8.40
10869;BMP180;62667;48.698;8.762;2023-03-14T06:55:14;94012.00;;;8.50
10869;BMP180;62667;48.698;8.762;2023-03-14T06:57:41;94003.00;;;8.50
10869;BMP180;62667;48.698;8.762;2023-03-14T07:00:13;94009.00;;;8.50
10869;BMP180;62667;48.698;8.762;2023-03-14T07:02:40;94011.00;;;8.60
10869;BMP180;62667;48.698;8.762;2023-03-14T07:05:08;94007.00;;;8.60
10869;BMP180;62667;48.698;8.762;2023-03-14T07:07:36;94014.00;;;8.40
10869;BMP180;62667;48.698;8.762;2023-03-14T07:10:04;94020.00;;;8.60
10869;BMP180;62667;48.698;8.762;2023-03-14T07:12:33;94002.00;;;8.60
10869;BMP180;62667;48.698;8.762;2023-03-14T07:15:00;94017.00;;;8.60
10869;BMP180;62667;48.698;8.762;2023-03-14T07:17:29;94035.00;;;8.50
10869;BMP180;62667;48.698;8.762;2023-03-14T07:19:57;94030.00;;;8.60
10869;BMP180;62667;48.698;8.762;2023-03-14T07:22:25;94024.00;;;8.70
10869;BMP180;62667;48.698;8.762;2023-03-14T07:24:52;94029.00;;;8.80
10869;BMP180;62667;48.698;8.762;2023-03-14T07:27:20;94018.00;;;8.80
10869;BMP180;62667;48.698;8.762;2023-03-14T07:29:47;94032.00;;;8.70
10869;BMP180;62667;48.698;8.762;2023-03-14T07:32:15;94031.00;;;8.90
10869;BMP180;62667;48.698;8.762;2023-03-14T07:34:43;94047.00;;;9.00
10869;BMP180;62667;48.698;8.762;2023-03-14T07:37:11;94015.00;;;9.10
10869;BMP180;62667;48.698;8.762;2023-03-14T07:39:38;94023.00;;;9.40
10869;BMP180;62667;48.698;8.762;2023-03-14T07:42:05;94041.00;;;9.20
10869;BMP180;62667;48.698;8.762;2023-03-14T07:44:33;94095.00;;;9.40
10869;BMP180;62667;48.698;8.762;2023-03-14T07:47:00;94049.00;;;9.30
10869;BMP180;62667;48.698;8.762;2023-03-14T07:49:28;94051.00;;;9.30
10869;BMP180;62667;48.698;8.762;2023-03-14T07:51:57;94056.00;;;9.40
10869;BMP180;62667;48.698;8.762;2023-03-14T07:54:25;94075.00;;;9.50
10869;BMP180;62667;48.698;8.762;2023-03-14T07:56:53;94065.00;;;9.50
10869;BMP180;62667;48.698;8.762;2023-03-14T07:59:20;94081.00;;;9.40
10869;BMP180;62667;48.698;8.762;2023-03-14T08:01:48;94077.00;;;9.50
10869;BMP180;62667;48.698;8.762;2023-03-14T08:04:15;94072.00;;;9.50
10869;BMP180;62667;48.698;8.762;2023-03-14T08:06:42;94081.00;;;9.40
10869;BMP180;62667;48.698;8.762;2023-03-14T08:09:11;94073.00;;;9.30
10869;BMP180;62667;48.698;8.762;2023-03-14T08:11:39;94085.00;;;9.20
10869;BMP180;62667;48.698;8.762;2023-03-14T08:14:06;94118.00;;;9.10
10869;BMP180;62667;48.698;8.762;2023-03-14T08:16:34;94078.00;;;9.20
10869;BMP180;62667;48.698;8.762;2023-03-14T08:19:01;94091.00;;;9.20
10869;BMP180;62667;48.698;8.762;2023-03-14T08:21:29;94092.00;;;9.10
10869;BMP180;62667;48.698;8.762;2023-03-14T08:23:56;94092.00;;;9.10
10869;BMP180;62667;48.698;8.762;2023-03-14T08:26:25;94088.00;;;9.00
10869;BMP180;62667;48.698;8.762;2023-03-14T08:28:52;94091.00;;;9.00
10869;BMP180;62667;48.698;8.762;2023-03-14T08:31:20;94085.00;;;9.00
10869;BMP180;62667;48.698;8.762;2023-03-14T08:33:47;94082.00;;;9.10
10869;BMP180;62667;48.698;8.762;2023-03-14T08:36:15;94098.00;;;9.00
10869;BMP180;62667;48.698;8.762;2023-03-14T08:38:42;94087.00;;;9.00
10869;BMP180;62667;48.698;8.762;2023-03-14T08:41:10;94077.00;;;9.10
10869;BMP180;62667;48.698;8.762;2023-03-14T08:43:39;94087.00;;;9.10
10869;BMP180;62667;48.698;8.762;2023-03-14T08:46:06;94084.00;;;9.10
10869;BMP180;62667;48.698;8.762;2023-03-14T08:48:34;94081.00;;;9.10
10869;BMP180;62667;48.698;8.762;2023-03-14T08:51:05;94076.00;;;9.30
10869;BMP180;62667;48.698;8.762;2023-03-14T08:53:33;94088.00;;;9.20
10869;BMP180;62667;48.698;8.762;2023-03-14T08:56:00;94085.00;;;9.10
10869;BMP180;62667;48.698;8.762;2023-03-14T08:58:28;94085.00;;;9.10
10869;BMP180;62667;48.698;8.762;2023-03-14T09:00:57;94105.00;;;9.10
10869;BMP180;62667;48.698;8.762;2023-03-14T09:03:24;94112.00;;;9.10
10869;BMP180;62667;48.698;8.762;2023-03-14T09:05:52;94108.00;;;9.10
10869;BMP180;62667;48.698;8.762;2023-03-14T09:08:19;94112.00;;;9.00
10869;BMP180;62667;48.698;8.762;2023-03-14T09:10:47;94132.00;;;8.90
10869;BMP180;62667;48.698;8.762;2023-03-14T09:13:15;94126.00;;;8.80
10869;BMP180;62667;48.698;8.762;2023-03-14T09:15:42;94113.00;;;8.90
10869;BMP180;62667;48.698;8.762;2023-03-14T09:18:11;94139.00;;;9.00
10869;BMP180;62667;48.698;8.762;2023-03-14T09:20:40;94116.00;;;9.20
10869;BMP180;62667;48.698;8.762;2023-03-14T09:23:08;94122.00;;;8.80
10869;BMP180;62667;48.698;8.762;2023-03-14T09:25:35;94151.00;;;8.80
10869;BMP180;62667;48.698;8.762;2023-03-14T09:28:03;94141.00;;;8.80
10869;BMP180;62667;48.698;8.762;2023-03-14T09:30:31;94151.00;;;9.10
10869;BMP180;62667;48.698;8.762;2023-03-14T09:32:58;94141.00;;;8.90
10869;BMP180;62667;48.698;8.762;2023-03-14T09:35:28;94150.00;;;8.60
10869;BMP180;62667;48.698;8.762;2023-03-14T09:37:55;94143.00;;;9.00
10869;BMP180;62667;48.698;8.762;2023-03-14T09:40:23;94129.00;;;9.00
10869;BMP180;62667;48.698;8.762;2023-03-14T09:42:51;94149.00;;;9.10
10869;BMP180;62667;48.698;8.762;2023-03-14T09:45:25;94133.00;;;8.90
10869;BMP180;62667;48.698;8.762;2023-03-14T09:47:54;94126.00;;;8.80
10869;BMP180;62667;48.698;8.762;2023-03-14T09:50:23;94128.00;;;9.00
10869;BMP180;62667;48.698;8.762;2023-03-14T09:52:58;94123.00;;;9.10
10869;BMP180;62667;48.698;8.762;2023-03-14T09:55:28;94125.00;;;9.40
10869;BMP180;62667;48.698;8.762;2023-03-14T09:57:58;94129.00;;;9.30
10869;BMP180;62667;48.698;8.762;2023-03-14T10:00:27;94113.00;;;9.90
10869;BMP180;62667;48.698;8.762;2023-03-14T10:03:00;94133.00;;;10.20
10869;BMP180;62667;48.698;8.762;2023-03-14T10:05:28;94135.00;;;9.80
10869;BMP180;62667;48.698;8.762;2023-03-14T10:07:57;94130.00;;;9.90
10869;BMP180;62667;48.698;8.762;2023-03-14T10:10:26;94141.00;;;9.90
10869;BMP180;62667;48.698;8.762;2023-03-14T10:12:57;94136.00;;;9.60
10869;BMP180;62667;48.698;8.762;2023-03-14T10:15:26;94139.00;;;9.50
10869;BMP180;62667;48.698;8.762;2023-03-14T10:17:54;94126.00;;;9.60
10869;BMP180;62667;48.698;8.762;2023-03-14T10:20:26;94144.00;;;9.90
10869;BMP180;62667;48.698;8.762;2023-03-14T10:23:00;94132.00;;;9.60
10869;BMP180;62667;48.698;8.762;2023-03-14T10:25:30;94137.00;;;10.00
10869;BMP180;62667;48.698;8.762;2023-03-14T10:27:58;94141.00;;;9.80
10869;BMP180;62667;48.698;8.762;2023-03-14T10:30:39;94149.00;;;9.50
10869;BMP180;62667;48.698;8.762;2023-03-14T10:33:11;94149.00;;;9.50
10869;BMP180;62667;48.698;8.762;2023-03-14T10:35:42;94151.00;;;9.40
10869;BMP180;62667;48.698;8.762;2023-03-14T10:38:15;94147.00;;;9.50
10869;BMP180;62667;48.698;8.762;2023-03-14T10:40:47;94155.00;;;9.90
10869;BMP180;62667;48.698;8.762;2023-03-14T10:43:18;94156.00;;;9.70
10869;BMP180;62667;48.698;8.762;2023-03-14T10:45:54;94157.00;;;9.60
10869;BMP180;62667;48.698;8.762;2023-03-14T10:48:29;94180.00;;;9.60
10869;BMP180;62667;48.698;8.762;2023-03-14T10:51:02;94172.00;;;9.40
10869;BMP180;62667;48.698;8.762;2023-03-14T10:53:39;94169.00;;;9.00
10869;BMP180;62667;48.698;8.762;2023-03-14T10:56:07;94184.00;;;9.00
10869;BMP180;62667;48.698;8.762;2023-03-14T10:58:38;94191.00;;;9.00
10869;BMP180;62667;48.698;8.762;2023-03-14T11:04:03;94190.00;;;8.70
10869;BMP180;62667;48.698;8.762;2023-03-14T11:06:36;94202.00;;;8.60
10869;BMP180;62667;48.698;8.762;2023-03-14T11:09:15;94200.00;;;8.70
10869;BMP180;62667;48.698;8.762;2023-03-14T11:11:47;94201.00;;;9.00
10869;BMP180;62667;48.698;8.762;2023-03-14T11:14:24;94198.00;;;8.50
10869;BMP180;62667;48.698;8.762;2023-03-14T11:16:59;94204.00;;;8.90
10869;BMP180;62667;48.698;8.762;2023-03-14T11:19:36;94202.00;;;9.00
10869;BMP180;62667;48.698;8.762;2023-03-14T11:22:14;94204.00;;;8.90
10869;BMP180;62667;48.698;8.762;2023-03-14T11:27:46;94206.00;;;9.50
10869;BMP180;62667;48.698;8.762;2023-03-14T11:30:19;94204.00;;;9.60
10869;BMP180;62667;48.698;8.762;2023-03-14T11:32:54;94228.00;;;9.20
10869;BMP180;62667;48.698;8.762;2023-03-14T11:35:26;94224.00;;;9.30
10869;BMP180;62667;48.698;8.762;2023-03-14T11:37:59;94224.00;;;9.00
10869;BMP180;62667;48.698;8.762;2023-03-14T11:40:32;94233.00;;;8.80
10869;BMP180;62667;48.698;8.762;2023-03-14T11:43:10;94217.00;;;8.60
10869;BMP180;62667;48.698;8.762;2023-03-14T11:45:41;94243.00;;;8.90
10869;BMP180;62667;48.698;8.762;2023-03-14T11:48:19;94250.00;;;8.60
10869;BMP180;62667;48.698;8.762;2023-03-14T11:50:51;94253.00;;;8.60
10869;BMP180;62667;48.698;8.762;2023-03-14T11:53:22;94265.00;;;8.60
10869;BMP180;62667;48.698;8.762;2023-03-14T11:55:52;94320.00;;;8.70
10869;BMP180;62667;48.698;8.762;2023-03-14T11:58:23;94287.00;;;8.50
10869;BMP180;62667;48.698;8.762;2023-03-14T12:00:54;94304.00;;;8.60
10869;BMP180;62667;48.698;8.762;2023-03-14T12:03:26;94325.00;;;9.10
10869;BMP180;62667;48.698;8.762;2023-03-14T12:06:09;94313.00;;;9.20
10869;BMP180;62667;48.698;8.762;2023-03-14T12:08:47;94342.00;;;8.50
10869;BMP180;62667;48.698;8.762;2023-03-14T12:11:22;94331.00;;;8.40
10869;BMP180;62667;48.698;8.762;2023-03-14T12:13:52;94350.00;;;8.10
10869;BMP180;62667;48.698;8.762;2023-03-14T12:16:30;94363.00;;;8.30
10869;BMP180;62667;48.698;8.762;2023-03-14T12:22:27;94354.00;;;8.50
10869;BMP180;62667;48.698;8.762;2023-03-14T12:24:59;94325.00;;;8.40
10869;BMP180;62667;48.698;8.762;2023-03-14T12:28:05;94338.00;;;8.80
10869;BMP180;62667;48.698;8.762;2023-03-14T12:30:34;94350.00;;;9.10
10869;BMP180;62667;48.698;8.762;2023-03-14T12:36:00;94395.00;;;9.40
10869;BMP180;62667;48.698;8.762;2023-03-14T12:38:37;94350.00;;;8.80
10869;BMP180;62667;48.698;8.762;2023-03-14T12:41:15;94359.00;;;9.30
10869;BMP180;62667;48.698;8.762;2023-03-14T12:43:45;94373.00;;;9.10
10869;BMP180;62667;48.698;8.762;2023-03-14T12:46:21;94424.00;;;9.00
10869;BMP180;62667;48.698;8.762;2023-03-14T12:48:50;94383.00;;;8.70
10869;BMP180;62667;48.698;8.762;2023-03-14T12:51:27;94392.00;;;8.80
10869;BMP180;62667;48.698;8.762;2023-03-14T12:54:11;94412.00;;;8.80
10869;BMP180;62667;48.698;8.762;2023-03-14T12:56:55;94432.00;;;9.40
10869;BMP180;62667;48.698;8.762;2023-03-14T12:59:32;94409.00;;;8.50
10869;BMP180;62667;48.698;8.762;2023-03-14T13:02:18;94417.00;;;8.90
10869;BMP180;62667;48.698;8.762;2023-03-14T13:04:49;94446.00;;;9.10
10869;BMP180;62667;48.698;8.762;2023-03-14T13:07:33;94450.00;;;8.80
10869;BMP180;62667;48.698;8.762;2023-03-14T13:10:16;94480.00;;;8.40
10869;BMP180;62667;48.698;8.762;2023-03-14T13:12:52;94509.00;;;8.30
10869;BMP180;62667;48.698;8.762;2023-03-14T13:15:27;94502.00;;;8.10
10869;BMP180;62667;48.698;8.762;2023-03-14T13:17:59;94501.00;;;8.00
10869;BMP180;62667;48.698;8.762;2023-03-14T13:20:32;94509.00;;;7.60
10869;BMP180;62667;48.698;8.762;2023-03-14T13:23:01;94531.00;;;7.40
10869;BMP180;62667;48.698;8.762;2023-03-14T13:25:36;94520.00;;;7.30
10869;BMP180;62667;48.698;8.762;2023-03-14T13:28:04;94529.00;;;7.10
10869;BMP180;62667;48.698;8.762;2023-03-14T13:30:41;94524.00;;;7.00
10869;BMP180;62667;48.698;8.762;2023-03-14T13:33:14;94556.00;;;7.40
10869;BMP180;62667;48.698;8.762;2023-03-14T13:35:43;94569.00;;;7.40
10869;BMP180;62667;48.698;8.762;2023-03-14T13:38:17;94595.00;;;7.80
10869;BMP180;62667;48.698;8.762;2023-03-14T13:40:46;94561.00;;;7.80
10869;BMP180;62667;48.698;8.762;2023-03-14T13:43:20;94570.00;;;8.20
10869;BMP180;62667;48.698;8.762;2023-03-14T13:45:54;94585.00;;;8.00
10869;BMP180;62667;48.698;8.762;2023-03-14T13:48:26;94588.00;;;7.80
10869;BMP180;62667;48.698;8.762;2023-03-14T13:50:56;94599.00;;;7.70
10869;BMP180;62667;48.698;8.762;2023-03-14T13:53:26;94617.00;;;8.30
10869;BMP180;62667;48.698;8.762;2023-03-14T13:55:53;94670.00;;;7.70
10869;BMP180;62667;48.698;8.762;2023-03-14T13:58:26;94633.00;;;7.50
10869;BMP180;62667;48.698;8.762;2023-03-14T14:01:10;94633.00;;;8.30
10869;BMP180;62667;48.698;8.762;2023-03-14T14:03:40;94673.00;;;8.10
10869;BMP180;62667;48.698;8.762;2023-03-14T14:06:16;94649.00;;;7.90
10869;BMP180;62667;48.698;8.762;2023-03-14T14:08:46;94677.00;;;7.50
10869;BMP180;62667;48.698;8.762;2023-03-14T14:11:21;94689.00;;;7.50
10869;BMP180;62667;48.698;8.762;2023-03-14T14:13:50;94690.00;;;7.50
10869;BMP180;62667;48.698;8.762;2023-03-14T14:16:22;94701.00;;;7.40
10869;BMP180;62667;48.698;8.762;2023-03-14T14:18:52;94734.00;;;7.10
10869;BMP180;62667;48.698;8.762;2023-03-14T14:21:20;94742.00;;;7.00
10869;BMP180;62667;48.698;8.762;2023-03-14T14:23:49;94732.00;;;6.90
10869;BMP180;62667;48.698;8.762;2023-03-14T14:26:18;94753.00;;;7.30
10869;BMP180;62667;48.698;8.762;2023-03-14T14:28:46;94748.00;;;7.70
10869;BMP180;62667;48.698;8.762;2023-03-14T14:31:21;94743.00;;;7.80
10869;BMP180;62667;48.698;8.762;2023-03-14T14:33:55;94751.00;;;7.70
10869;BMP180;62667;48.698;8.762;2023-03-14T14:36:25;94704.00;;;7.40
10869;BMP180;62667;48.698;8.762;2023-03-14T14:38:57;94726.00;;;7.90
10869;BMP180;62667;48.698;8.762;2023-03-14T14:41:28;94751.00;;;7.80
10869;BMP180;62667;48.698;8.762;2023-03-14T14:43:57;94779.00;;;7.90
10869;BMP180;62667;48.698;8.762;2023-03-14T14:46:28;94769.00;;;7.80
10869;BMP180;62667;48.698;8.762;2023-03-14T14:48:57;94829.00;;;7.50
10869;BMP180;62667;48.698;8.762;2023-03-14T14:51:30;94798.00;;;7.10